Time;durP1;ratioP1;P1;durP2;ratioP2;P2;SDS_P1;SDS_P2;PMS_P1;PMS_P2;Temp;Humidity;BMP_temperature;BMP_pressure;BME280_temperature;BME280_humidity;BME280_pressure;Samples;Min_cycle;Max_cycle;Signal;HPM_P1;HPM_P2
2023/10/16 00:02:22;;;;;;;5.88;1.55;;;;;;;;;;5118304;27;20095;-60
2023/10/16 00:04:49;;;;;;;4.10;1.63;;;;;;;;;;5119689;27;20052;-59
2023/10/16 00:07:21;;;;;;;5.82;1.65;;;;;;;;;;5122203;27;20052;-59
2023/10/16 00:09:49;;;;;;;5.90;1.63;;;;;;;;;;5124361;27;20146;-60
2023/10/16 00:12:19;;;;;;;5.18;1.50;;;;;;;;;;5113882;27;20048;-60
2023/10/16 00:14:46;;;;;;;6.88;1.48;;;;;;;;;;5124315;27;20522;-58
2023/10/16 00:17:15;;;;;;;3.35;1.45;;;;;;;;;;5117383;27;20061;-61
2023/10/16 00:19:44;;;;;;;5.88;1.48;;;;;;;;;;5125610;27;20591;-58
2023/10/16 00:22:16;;;;;;;7.47;1.20;;;;;;;;;;5115753;27;20086;-61
2023/10/16 00:24:45;;;;;;;6.72;1.55;;;;;;;;;;5114778;27;20059;-59
2023/10/16 00:27:14;;;;;;;2.33;1.05;;;;;;;;;;5114272;27;20425;-57
2023/10/16 00:29:43;;;;;;;8.38;2.30;;;;;;;;;;5118018;27;20058;-60
2023/10/16 00:32:16;;;;;;;6.50;1.30;;;;;;;;;;5112981;27;20052;-59
2023/10/16 00:34:44;;;;;;;4.78;1.40;;;;;;;;;;5121428;27;20191;-59
2023/10/16 00:37:11;;;;;;;4.18;1.65;;;;;;;;;;5118134;27;20082;-61
2023/10/16 00:39:37;;;;;;;3.35;1.13;;;;;;;;;;5125692;27;20047;-56
2023/10/16 00:42:08;;;;;;;3.17;1.48;;;;;;;;;;5126165;27;20079;-58
2023/10/16 00:44:35;;;;;;;4.93;1.35;;;;;;;;;;5124470;27;20109;-60
2023/10/16 00:47:04;;;;;;;5.65;1.85;;;;;;;;;;5124839;27;20139;-60
2023/10/16 00:49:31;;;;;;;2.47;1.33;;;;;;;;;;5125213;27;20051;-57
2023/10/16 00:51:58;;;;;;;3.55;1.77;;;;;;;;;;5125787;27;20051;-59
2023/10/16 00:54:29;;;;;;;4.28;1.20;;;;;;;;;;5124160;27;20058;-60
2023/10/16 00:56:57;;;;;;;11.90;1.85;;;;;;;;;;5125412;27;20051;-58
2023/10/16 00:59:24;;;;;;;4.40;2.15;;;;;;;;;;5125228;27;20058;-59
2023/10/16 01:02:33;;;;;;;4.60;1.73;;;;;;;;;;5125411;27;20056;-58
2023/10/16 01:04:41;;;;;;;7.22;2.08;;;;;;;;;;5108075;27;20445;-59
2023/10/16 01:07:08;;;;;;;5.80;2.30;;;;;;;;;;5120205;27;20128;-59
2023/10/16 01:09:35;;;;;;;6.95;1.88;;;;;;;;;;5116156;27;20054;-60
2023/10/16 01:12:06;;;;;;;2.67;1.50;;;;;;;;;;5118652;27;20057;-59
2023/10/16 01:14:33;;;;;;;7.40;2.25;;;;;;;;;;5124537;27;20575;-60
2023/10/16 01:17:01;;;;;;;5.90;2.05;;;;;;;;;;5115778;27;20132;-60
2023/10/16 01:19:28;;;;;;;4.47;1.65;;;;;;;;;;5124450;27;20101;-58
2023/10/16 01:21:58;;;;;;;6.75;1.75;;;;;;;;;;5123286;27;20051;-59
2023/10/16 01:24:26;;;;;;;3.28;1.33;;;;;;;;;;5124707;27;20433;-59
2023/10/16 01:26:59;;;;;;;2.55;1.58;;;;;;;;;;5125454;27;20040;-59
2023/10/16 01:29:25;;;;;;;4.60;1.95;;;;;;;;;;5124386;27;20092;-59
2023/10/16 01:31:52;;;;;;;4.82;1.98;;;;;;;;;;5125074;27;20177;-57
2023/10/16 01:34:22;;;;;;;7.95;3.42;;;;;;;;;;5122615;27;20056;-58
2023/10/16 01:36:51;;;;;;;5.13;1.80;;;;;;;;;;5125662;27;20051;-60
2023/10/16 01:42:11;;;;;;;4.25;1.80;;;;;;;;;;5125463;27;20570;-59
2023/10/16 01:44:39;;;;;;;2.45;1.85;;;;;;;;;;5112602;27;20128;-56
2023/10/16 01:47:13;;;;;;;7.10;2.28;;;;;;;;;;5122141;27;20055;-59
2023/10/16 01:49:39;;;;;;;7.28;1.67;;;;;;;;;;5120742;27;20059;-58
2023/10/16 01:52:10;;;;;;;3.13;2.25;;;;;;;;;;5124599;27;20054;-59
2023/10/16 01:54:44;;;;;;;5.53;2.35;;;;;;;;;;5115934;27;20154;-60
2023/10/16 01:57:12;;;;;;;4.80;2.22;;;;;;;;;;5123548;27;20047;-59
2023/10/16 01:59:47;;;;;;;4.15;2.05;;;;;;;;;;5122899;27;20052;-59
2023/10/16 02:02:14;;;;;;;6.85;2.55;;;;;;;;;;5125035;27;20058;-60
2023/10/16 02:04:41;;;;;;;7.18;2.50;;;;;;;;;;5123185;27;20048;-59
2023/10/16 02:07:08;;;;;;;3.85;2.13;;;;;;;;;;5122949;27;20055;-58
2023/10/16 02:09:38;;;;;;;5.15;2.38;;;;;;;;;;5118026;27;20060;-58
2023/10/16 02:12:10;;;;;;;5.55;2.08;;;;;;;;;;5122870;27;20521;-59
2023/10/16 02:14:40;;;;;;;5.18;2.67;;;;;;;;;;5110374;27;20587;-58
2023/10/16 02:17:14;;;;;;;6.75;2.17;;;;;;;;;;5117146;27;20083;-59
2023/10/16 02:19:44;;;;;;;8.95;2.83;;;;;;;;;;5124279;27;20482;-60
2023/10/16 02:22:11;;;;;;;12.88;2.58;;;;;;;;;;5118823;27;20052;-60
2023/10/16 02:24:38;;;;;;;6.13;2.38;;;;;;;;;;5121582;27;20130;-57
2023/10/16 02:27:09;;;;;;;4.95;2.35;;;;;;;;;;5124124;27;20514;-61
2023/10/16 02:29:37;;;;;;;4.82;2.67;;;;;;;;;;5114329;27;20058;-60
2023/10/16 02:32:04;;;;;;;7.55;2.50;;;;;;;;;;5123664;27;20581;-60
2023/10/16 02:34:36;;;;;;;6.18;2.33;;;;;;;;;;5114249;27;20058;-60
2023/10/16 02:37:06;;;;;;;2.85;2.08;;;;;;;;;;5121075;27;20062;-58
2023/10/16 02:39:41;;;;;;;4.65;2.47;;;;;;;;;;5106084;27;20399;-60
2023/10/16 02:42:12;;;;;;;;;;;;;;;;;;5121676;27;20054;-60
2023/10/16 02:44:47;;;;;;;7.75;2.65;;;;;;;;;;5121657;27;45647;-58
2023/10/16 02:47:21;;;;;;;3.65;1.98;;;;;;;;;;5123563;27;20047;-60
2023/10/16 02:49:48;;;;;;;8.40;2.70;;;;;;;;;;5124618;27;20158;-60
2023/10/16 02:52:16;;;;;;;4.25;2.22;;;;;;;;;;5123314;27;20525;-58
2023/10/16 02:54:45;;;;;;;6.50;2.33;;;;;;;;;;5112032;27;20048;-60
2023/10/16 02:57:11;;;;;;;5.40;2.17;;;;;;;;;;5124080;27;20058;-56
2023/10/16 02:59:38;;;;;;;14.00;3.78;;;;;;;;;;5123862;27;20071;-60
2023/10/16 03:02:13;;;;;;;4.38;2.05;;;;;;;;;;5120905;27;20151;-60
2023/10/16 03:04:40;;;;;;;7.13;2.53;;;;;;;;;;5122819;27;20501;-56
2023/10/16 03:07:07;;;;;;;6.97;2.17;;;;;;;;;;5122898;27;20589;-60
2023/10/16 03:09:33;;;;;;;2.83;2.22;;;;;;;;;;5120428;27;20125;-60
2023/10/16 03:12:08;;;;;;;7.03;2.65;;;;;;;;;;5126495;27;20055;-60
2023/10/16 03:17:25;;;;;;;10.43;2.25;;;;;;;;;;5122156;27;20062;-60
2023/10/16 03:19:55;;;;;;;3.97;1.70;;;;;;;;;;5122394;27;20051;-57
2023/10/16 03:22:21;;;;;;;5.10;1.98;;;;;;;;;;5123463;27;20062;-60
2023/10/16 03:24:48;;;;;;;5.35;2.20;;;;;;;;;;5123241;27;20051;-60
2023/10/16 03:27:28;;;;;;;6.13;2.08;;;;;;;;;;5123065;27;20052;-59
2023/10/16 03:29:56;;;;;;;4.50;1.75;;;;;;;;;;5122552;27;20077;-60
2023/10/16 03:32:25;;;;;;;3.17;1.98;;;;;;;;;;5122639;27;20138;-59
2023/10/16 03:34:52;;;;;;;5.95;2.28;;;;;;;;;;5121321;27;20059;-59
2023/10/16 03:37:19;;;;;;;5.50;1.88;;;;;;;;;;5123466;27;20051;-57
2023/10/16 03:39:46;;;;;;;5.75;2.08;;;;;;;;;;5106064;27;20060;-58
2023/10/16 03:42:17;;;;;;;7.38;2.00;;;;;;;;;;5120704;27;20058;-56
2023/10/16 03:44:45;;;;;;;4.70;2.08;;;;;;;;;;5127388;27;20086;-59
2023/10/16 03:47:11;;;;;;;4.78;1.63;;;;;;;;;;5125961;27;20505;-58
2023/10/16 03:49:38;;;;;;;7.32;1.73;;;;;;;;;;5125264;27;20078;-59
2023/10/16 03:52:07;;;;;;;4.70;1.85;;;;;;;;;;5118420;27;20056;-59
2023/10/16 03:54:35;;;;;;;4.03;2.20;;;;;;;;;;5125547;27;20051;-58
2023/10/16 03:57:09;;;;;;;4.75;2.20;;;;;;;;;;5125902;27;20143;-59
2023/10/16 03:59:42;;;;;;;4.70;1.90;;;;;;;;;;5126761;27;20087;-60
2023/10/16 04:02:16;;;;;;;2.95;1.55;;;;;;;;;;5119187;27;20058;-59
2023/10/16 04:04:43;;;;;;;3.08;1.80;;;;;;;;;;5119924;27;20051;-57
2023/10/16 04:07:13;;;;;;;6.65;2.20;;;;;;;;;;5125344;27;20506;-59
2023/10/16 04:09:49;;;;;;;5.72;1.95;;;;;;;;;;5126058;27;20060;-57
2023/10/16 04:12:20;;;;;;;6.90;1.92;;;;;;;;;;5126928;27;20044;-59
2023/10/16 04:15:03;;;;;;;5.80;2.08;;;;;;;;;;5124540;27;20051;-59
2023/10/16 04:17:34;;;;;;;5.18;2.03;;;;;;;;;;5125216;27;20514;-55
2023/10/16 04:20:42;;;;;;;6.43;1.90;;;;;;;;;;5125775;27;20052;-55
2023/10/16 04:22:57;;;;;;;11.68;2.35;;;;;;;;;;5114915;27;20155;-57
2023/10/16 04:25:32;;;;;;;3.38;1.80;;;;;;;;;;5127553;27;20066;-60
2023/10/16 04:28:17;;;;;;;3.07;1.83;;;;;;;;;;5118619;27;20124;-60
2023/10/16 04:30:47;;;;;;;5.15;1.77;;;;;;;;;;5125630;27;20056;-61
2023/10/16 04:33:23;;;;;;;4.20;2.08;;;;;;;;;;5123019;27;20142;-59
2023/10/16 04:38:53;;;;;;;3.40;2.13;;;;;;;;;;5123911;27;20111;-59
2023/10/16 04:44:23;;;;;;;4.90;1.90;;;;;;;;;;5072292;28;20103;-60
2023/10/16 04:46:55;;;;;;;5.47;2.30;;;;;;;;;;5068842;28;20061;-59
2023/10/16 04:49:28;;;;;;;4.13;1.90;;;;;;;;;;5073507;28;20132;-60
2023/10/16 04:52:06;;;;;;;5.57;2.10;;;;;;;;;;5080044;28;20048;-61
2023/10/16 04:54:59;;;;;;;6.93;2.00;;;;;;;;;;5069618;28;20411;-57
2023/10/16 05:00:12;;;;;;;3.28;1.90;;;;;;;;;;5097530;28;20560;-59
2023/10/16 05:02:51;;;;;;;4.88;1.92;;;;;;;;;;5083200;28;20057;-59
2023/10/16 05:05:56;;;;;;;4.60;1.50;;;;;;;;;;5081214;28;20052;-59
2023/10/16 05:16:47;;;;;;;4.80;1.90;;;;;;;;;;5081182;28;20581;-60
2023/10/16 05:19:43;;;;;;;4.43;1.40;;;;;;;;;;5082164;28;20318;-59
2023/10/16 06:14:24;;;;;;;4.82;2.53;;;;;;;;;;5120285;27;20369;-61
2023/10/16 06:16:53;;;;;;;4.55;2.33;;;;;;;;;;5110398;27;20079;-58
2023/10/16 06:19:22;;;;;;;6.03;2.10;;;;;;;;;;5115471;27;20051;-57
2023/10/16 06:22:06;;;;;;;2.70;1.88;;;;;;;;;;5122462;27;20064;-58
2023/10/16 06:24:33;;;;;;;6.45;2.05;;;;;;;;;;5118725;27;20059;-60
2023/10/16 06:27:01;;;;;;;4.43;2.17;;;;;;;;;;5107797;27;20454;-58
2023/10/16 06:29:35;;;;;;;6.10;2.50;;;;;;;;;;5102477;27;20056;-58
2023/10/16 06:32:07;;;;;;;5.07;2.40;;;;;;;;;;5118039;27;20055;-60
2023/10/16 06:34:34;;;;;;;8.13;2.13;;;;;;;;;;5123043;27;20228;-59
2023/10/16 06:37:06;;;;;;;3.22;2.33;;;;;;;;;;5112860;27;20055;-60
2023/10/16 06:39:36;;;;;;;6.50;2.40;;;;;;;;;;5110314;27;20044;-57
2023/10/16 06:42:04;;;;;;;3.13;2.50;;;;;;;;;;5119000;27;20436;-60
2023/10/16 06:44:33;;;;;;;3.90;2.33;;;;;;;;;;5112385;27;20121;-60
2023/10/16 06:47:00;;;;;;;5.57;2.50;;;;;;;;;;5123478;27;20142;-57
2023/10/16 06:49:28;;;;;;;3.13;2.30;;;;;;;;;;5122033;27;20052;-58
2023/10/16 06:51:56;;;;;;;6.03;2.80;;;;;;;;;;5122894;27;20097;-60
2023/10/16 06:54:24;;;;;;;8.10;2.38;;;;;;;;;;5114549;27;20152;-59
2023/10/16 06:56:51;;;;;;;8.23;2.70;;;;;;;;;;5115197;27;20052;-59
2023/10/16 06:59:18;;;;;;;5.70;2.95;;;;;;;;;;5121721;27;20514;-60
2023/10/16 07:01:47;;;;;;;7.18;2.50;;;;;;;;;;5118393;27;20136;-60
2023/10/16 07:04:14;;;;;;;5.85;2.75;;;;;;;;;;5118790;27;20079;-60
2023/10/16 07:06:43;;;;;;;5.88;2.90;;;;;;;;;;5120934;27;20047;-60
2023/10/16 07:09:09;;;;;;;5.80;2.65;;;;;;;;;;5110866;27;20059;-60
2023/10/16 07:11:42;;;;;;;6.20;3.65;;;;;;;;;;5111473;27;20405;-60
2023/10/16 07:14:12;;;;;;;6.85;3.00;;;;;;;;;;5118166;27;20310;-60
2023/10/16 07:16:41;;;;;;;7.32;2.88;;;;;;;;;;5122587;27;20059;-59
2023/10/16 07:19:08;;;;;;;4.88;2.30;;;;;;;;;;5105488;27;20056;-58
2023/10/16 07:21:34;;;;;;;5.25;2.63;;;;;;;;;;5111606;27;20066;-59
2023/10/16 07:24:03;;;;;;;8.82;2.50;;;;;;;;;;5118837;27;20052;-58
2023/10/16 07:26:29;;;;;;;4.25;2.90;;;;;;;;;;5109833;27;20052;-60
2023/10/16 07:28:58;;;;;;;6.63;2.50;;;;;;;;;;5128399;27;20058;-58
2023/10/16 07:31:25;;;;;;;5.00;2.63;;;;;;;;;;5114110;27;20064;-61
2023/10/16 07:33:54;;;;;;;3.75;2.60;;;;;;;;;;5119411;27;20055;-60
2023/10/16 07:36:21;;;;;;;6.05;2.55;;;;;;;;;;5111829;27;20564;-60
2023/10/16 07:38:50;;;;;;;5.13;2.72;;;;;;;;;;5102463;27;20055;-60
2023/10/16 07:41:18;;;;;;;5.40;3.15;;;;;;;;;;5112261;27;20058;-60
2023/10/16 07:43:46;;;;;;;5.88;2.75;;;;;;;;;;5121444;27;20494;-59
2023/10/16 07:48:52;;;;;;;4.72;2.95;;;;;;;;;;5115555;27;20055;-60
2023/10/16 07:51:20;;;;;;;6.05;2.70;;;;;;;;;;5122302;27;20572;-59
2023/10/16 07:53:50;;;;;;;4.55;2.20;;;;;;;;;;5121607;27;20156;-60
2023/10/16 07:56:25;;;;;;;10.68;2.70;;;;;;;;;;5118996;27;20131;-59
2023/10/16 07:58:56;;;;;;;5.75;2.83;;;;;;;;;;5122218;27;20666;-59
2023/10/16 08:01:36;;;;;;;5.70;2.53;;;;;;;;;;5121912;27;20107;-60
2023/10/16 08:04:06;;;;;;;9.13;3.67;;;;;;;;;;5118273;27;20090;-60
2023/10/16 08:06:37;;;;;;;3.63;2.20;;;;;;;;;;5120110;27;20044;-59
2023/10/16 08:11:56;;;;;;;4.40;2.13;;;;;;;;;;5130937;27;20130;-60
2023/10/16 08:14:24;;;;;;;5.53;2.37;;;;;;;;;;5109026;27;20134;-57
2023/10/16 08:16:58;;;;;;;3.88;2.20;;;;;;;;;;5120724;27;20274;-60
2023/10/16 08:19:25;;;;;;;6.07;2.27;;;;;;;;;;5121864;27;20055;-59
2023/10/16 08:21:56;;;;;;;6.40;2.33;;;;;;;;;;5121656;27;20312;-59
2023/10/16 08:24:24;;;;;;;7.32;3.42;;;;;;;;;;5117903;27;20052;-59
2023/10/16 08:26:52;;;;;;;5.00;2.33;;;;;;;;;;5102313;27;20052;-59
2023/10/16 08:29:29;;;;;;;5.55;2.03;;;;;;;;;;5106608;27;20101;-60
2023/10/16 08:34:42;;;;;;;4.53;2.60;;;;;;;;;;5104582;27;20052;-61
2023/10/16 08:37:14;;;;;;;6.00;2.30;;;;;;;;;;5122610;27;20058;-60
2023/10/16 08:39:49;;;;;;;6.60;2.20;;;;;;;;;;5123900;27;20356;-60
2023/10/16 08:42:19;;;;;;;;;;;;;;;;;;5113640;27;20047;-60
2023/10/16 08:44:51;;;;;;;4.25;2.10;;;;;;;;;;5110422;27;46752;-59
2023/10/16 08:47:24;;;;;;;3.67;1.80;;;;;;;;;;5104845;27;20533;-59
2023/10/16 08:49:55;;;;;;;4.90;1.88;;;;;;;;;;5112505;27;20591;-59
2023/10/16 08:52:33;;;;;;;4.05;1.70;;;;;;;;;;5105003;28;20490;-60
2023/10/16 08:55:14;;;;;;;;;;;;;;;;;;5114948;27;20083;-60
2023/10/16 08:57:41;;;;;;;5.18;1.67;;;;;;;;;;5104463;27;43756;-59
2023/10/16 09:00:10;;;;;;;3.42;1.65;;;;;;;;;;5115336;27;20051;-59
2023/10/16 09:02:38;;;;;;;3.80;1.80;;;;;;;;;;5124439;27;20066;-59
2023/10/16 09:05:08;;;;;;;7.13;2.20;;;;;;;;;;5120209;27;20477;-59
2023/10/16 09:07:39;;;;;;;3.80;1.92;;;;;;;;;;5124466;27;20058;-59
2023/10/16 09:10:09;;;;;;;5.80;1.90;;;;;;;;;;5120806;27;20055;-60
2023/10/16 09:12:44;;;;;;;10.68;3.78;;;;;;;;;;5124814;27;20136;-59
2023/10/16 09:15:15;;;;;;;5.20;1.85;;;;;;;;;;5114375;27;20090;-59
2023/10/16 09:17:41;;;;;;;3.20;1.58;;;;;;;;;;5116631;27;20047;-58
2023/10/16 09:20:16;;;;;;;3.58;1.90;;;;;;;;;;5115103;27;20055;-58
2023/10/16 09:22:45;;;;;;;3.95;2.08;;;;;;;;;;5110234;27;20052;-60
2023/10/16 09:25:15;;;;;;;4.18;1.95;;;;;;;;;;5105554;27;20139;-59
2023/10/16 09:27:59;;;;;;;2.17;1.65;;;;;;;;;;5108171;27;20294;-59
2023/10/16 09:30:28;;;;;;;4.72;1.77;;;;;;;;;;5114545;27;20575;-59
2023/10/16 09:32:56;;;;;;;5.70;1.83;;;;;;;;;;5117280;27;20501;-60
2023/10/16 09:35:30;;;;;;;3.88;1.65;;;;;;;;;;5123990;27;20488;-60
2023/10/16 09:38:19;;;;;;;6.82;1.80;;;;;;;;;;5124388;27;20112;-60
2023/10/16 09:41:12;;;;;;;4.78;1.60;;;;;;;;;;5119676;27;20177;-60
2023/10/16 09:43:40;;;;;;;4.18;1.70;;;;;;;;;;5106485;27;20051;-60
2023/10/16 09:46:40;;;;;;;4.50;1.52;;;;;;;;;;5118685;27;20051;-59
2023/10/16 09:49:10;;;;;;;2.78;1.20;;;;;;;;;;5124985;27;20043;-59
2023/10/16 09:51:39;;;;;;;3.15;1.25;;;;;;;;;;5121575;27;20506;-60
2023/10/16 09:54:21;;;;;;;5.05;1.10;;;;;;;;;;5112607;27;20173;-59
2023/10/16 09:56:49;;;;;;;1.42;0.82;;;;;;;;;;5119703;27;20469;-60
2023/10/16 09:59:22;;;;;;;3.95;1.70;;;;;;;;;;5123282;27;20047;-59
2023/10/16 10:01:55;;;;;;;2.08;1.20;;;;;;;;;;5109023;27;20051;-60
2023/10/16 10:04:24;;;;;;;3.72;1.65;;;;;;;;;;5120558;27;20476;-62
2023/10/16 10:06:54;;;;;;;4.03;1.17;;;;;;;;;;5118842;27;20051;-60
2023/10/16 10:09:22;;;;;;;3.40;0.98;;;;;;;;;;5131851;27;20053;-60
2023/10/16 10:12:14;;;;;;;5.40;0.75;;;;;;;;;;5112943;27;20505;-60
2023/10/16 10:14:48;;;;;;;2.72;0.77;;;;;;;;;;5104962;27;20577;-58
2023/10/16 10:17:25;;;;;;;1.92;1.15;;;;;;;;;;5124117;27;20048;-60
2023/10/16 10:19:55;;;;;;;2.97;1.23;;;;;;;;;;5114475;27;20051;-58
2023/10/16 10:22:32;;;;;;;4.82;1.10;;;;;;;;;;5117099;27;20547;-58
2023/10/16 10:25:24;;;;;;;1.33;0.93;;;;;;;;;;5105514;27;20109;-58
2023/10/16 10:27:54;;;;;;;1.65;0.90;;;;;;;;;;5103757;27;20095;-58
2023/10/16 10:30:25;;;;;;;3.42;1.05;;;;;;;;;;5118152;27;20497;-58
2023/10/16 10:32:53;;;;;;;2.60;0.98;;;;;;;;;;5115845;27;20098;-58
2023/10/16 10:35:28;;;;;;;2.38;0.90;;;;;;;;;;5121646;27;20051;-61
2023/10/16 10:38:07;;;;;;;1.80;1.08;;;;;;;;;;5119314;27;20502;-59
2023/10/16 10:40:37;;;;;;;3.83;0.85;;;;;;;;;;5119170;27;20520;-59
2023/10/16 10:43:04;;;;;;;3.22;1.15;;;;;;;;;;5102101;28;20048;-58
2023/10/16 10:45:35;;;;;;;2.50;0.80;;;;;;;;;;5119902;27;20054;-58
2023/10/16 10:48:10;;;;;;;1.40;0.65;;;;;;;;;;5123457;27;20055;-59
2023/10/16 10:50:38;;;;;;;;;;;;;;;;;;5118807;27;20612;-59
2023/10/16 10:53:14;;;;;;;3.58;1.00;;;;;;;;;;5103076;28;47220;-58
2023/10/16 10:55:57;;;;;;;8.27;1.30;;;;;;;;;;5119683;27;20498;-59
2023/10/16 10:58:31;;;;;;;1.52;0.77;;;;;;;;;;5121384;27;20406;-59
2023/10/16 11:01:37;;;;;;;4.57;1.13;;;;;;;;;;5121766;27;20048;-59
2023/10/16 11:03:54;;;;;;;5.20;1.65;;;;;;;;;;5120436;27;20367;-59
2023/10/16 11:06:31;;;;;;;3.53;1.15;;;;;;;;;;5119464;27;20055;-59
2023/10/16 11:09:11;;;;;;;2.22;1.17;;;;;;;;;;5123653;27;20051;-59
2023/10/16 11:11:40;;;;;;;5.93;0.80;;;;;;;;;;5115651;27;20141;-58
2023/10/16 11:14:12;;;;;;;2.60;0.73;;;;;;;;;;5125633;27;20048;-56
2023/10/16 11:16:42;;;;;;;2.10;0.75;;;;;;;;;;5112591;27;20655;-56
2023/10/16 11:19:09;;;;;;;2.15;1.13;;;;;;;;;;5111058;27;20048;-58
2023/10/16 11:21:39;;;;;;;3.80;0.90;;;;;;;;;;5123114;27;20058;-58
2023/10/16 11:24:06;;;;;;;5.07;1.40;;;;;;;;;;5132900;27;20415;-59
2023/10/16 11:26:33;;;;;;;5.32;1.02;;;;;;;;;;5114857;27;20102;-61
2023/10/16 11:29:00;;;;;;;4.20;1.00;;;;;;;;;;5108292;27;20502;-58
2023/10/16 11:31:27;;;;;;;5.55;1.17;;;;;;;;;;5133641;27;20505;-56
2023/10/16 11:34:07;;;;;;;4.97;1.20;;;;;;;;;;5120434;27;20059;-57
2023/10/16 11:36:34;;;;;;;5.15;0.90;;;;;;;;;;5121039;27;20062;-59
2023/10/16 11:39:16;;;;;;;3.13;0.80;;;;;;;;;;5117320;27;20101;-59
2023/10/16 11:41:43;;;;;;;3.25;1.08;;;;;;;;;;5116130;27;20063;-58
2023/10/16 11:44:15;;;;;;;2.08;0.88;;;;;;;;;;5119500;27;20108;-59
2023/10/16 11:46:46;;;;;;;3.53;1.23;;;;;;;;;;5126423;27;20055;-59
2023/10/16 11:51:45;;;;;;;4.03;0.90;;;;;;;;;;5118258;27;20059;-58
2023/10/16 11:54:12;;;;;;;4.95;1.00;;;;;;;;;;5102097;27;20055;-59
2023/10/16 11:56:38;;;;;;;6.00;0.95;;;;;;;;;;5114570;27;20540;-58
2023/10/16 11:59:09;;;;;;;7.07;1.33;;;;;;;;;;5129610;27;20075;-56
2023/10/16 12:01:35;;;;;;;3.70;1.15;;;;;;;;;;5126664;27;20147;-59
2023/10/16 12:04:23;;;;;;;1.85;1.00;;;;;;;;;;5113004;27;20059;-58
2023/10/16 12:06:51;;;;;;;4.35;0.90;;;;;;;;;;5115477;27;20062;-58
2023/10/16 12:09:21;;;;;;;6.57;1.58;;;;;;;;;;5116032;27;20089;-58
2023/10/16 12:11:49;;;;;;;4.63;1.02;;;;;;;;;;5120720;27;20188;-57
2023/10/16 12:14:16;;;;;;;3.33;1.23;;;;;;;;;;5126427;27;20482;-57
2023/10/16 12:16:46;;;;;;;5.97;1.13;;;;;;;;;;5124689;27;20138;-58
2023/10/16 12:19:14;;;;;;;3.20;1.20;;;;;;;;;;5135584;27;20066;-59
2023/10/16 12:21:41;;;;;;;6.40;1.40;;;;;;;;;;5123845;27;20079;-59
2023/10/16 12:24:10;;;;;;;3.70;0.93;;;;;;;;;;5109830;27;20583;-59
2023/10/16 12:26:40;;;;;;;4.03;1.08;;;;;;;;;;5115901;27;20082;-58
2023/10/16 12:29:08;;;;;;;5.40;1.30;;;;;;;;;;5129774;27;20052;-56
2023/10/16 12:31:35;;;;;;;3.67;1.00;;;;;;;;;;5115711;27;20059;-57
2023/10/16 12:34:01;;;;;;;2.92;1.17;;;;;;;;;;5123751;27;20577;-59
2023/10/16 12:36:30;;;;;;;2.88;1.10;;;;;;;;;;5124159;27;20079;-59
2023/10/16 12:38:56;;;;;;;5.32;1.30;;;;;;;;;;5123173;27;20056;-57
2023/10/16 12:41:23;;;;;;;6.85;1.27;;;;;;;;;;5124664;27;20591;-55
2023/10/16 12:43:50;;;;;;;8.32;1.92;;;;;;;;;;5111312;27;20052;-57
2023/10/16 12:46:17;;;;;;;3.97;0.98;;;;;;;;;;5123034;27;20586;-59
2023/10/16 12:48:44;;;;;;;3.90;1.10;;;;;;;;;;5120580;27;20055;-59
2023/10/16 12:51:11;;;;;;;5.03;0.77;;;;;;;;;;5133296;27;20071;-57
2023/10/16 12:53:38;;;;;;;4.40;0.93;;;;;;;;;;5116260;27;20147;-58
2023/10/16 12:56:06;;;;;;;3.40;1.20;;;;;;;;;;5113101;27;20063;-58
2023/10/16 12:58:36;;;;;;;4.80;1.17;;;;;;;;;;5123836;27;20099;-59
2023/10/16 13:01:10;;;;;;;3.65;0.95;;;;;;;;;;5122995;27;20139;-56
2023/10/16 13:03:37;;;;;;;4.78;1.15;;;;;;;;;;5123601;27;20054;-58
2023/10/16 13:06:05;;;;;;;5.30;0.95;;;;;;;;;;5121150;27;20984;-59
2023/10/16 13:08:33;;;;;;;3.97;1.10;;;;;;;;;;5123111;27;20040;-60
2023/10/16 13:10:59;;;;;;;5.20;1.23;;;;;;;;;;5122623;27;20563;-59
2023/10/16 13:13:25;;;;;;;3.88;1.17;;;;;;;;;;5123261;27;20048;-59
2023/10/16 13:15:52;;;;;;;4.40;1.30;;;;;;;;;;5123755;27;20052;-60
2023/10/16 13:18:27;;;;;;;8.88;2.08;;;;;;;;;;5124143;27;20051;-60
2023/10/16 13:20:57;;;;;;;4.88;1.20;;;;;;;;;;5114440;27;20082;-58
2023/10/16 13:23:26;;;;;;;5.20;1.60;;;;;;;;;;5124814;27;20054;-59
2023/10/16 13:26:10;;;;;;;5.70;1.48;;;;;;;;;;5123280;27;20060;-58
2023/10/16 13:28:41;;;;;;;3.28;1.30;;;;;;;;;;5123959;27;20117;-58
2023/10/16 13:31:08;;;;;;;3.63;1.00;;;;;;;;;;5124016;27;20059;-60
2023/10/16 13:33:40;;;;;;;2.05;1.25;;;;;;;;;;5122734;27;20062;-58
2023/10/16 13:36:11;;;;;;;7.43;1.42;;;;;;;;;;5122391;27;20051;-59
2023/10/16 13:38:39;;;;;;;4.38;1.33;;;;;;;;;;5122310;27;20059;-59
2023/10/16 13:41:18;;;;;;;4.13;1.08;;;;;;;;;;5112554;27;20052;-60
2023/10/16 13:43:44;;;;;;;5.05;1.10;;;;;;;;;;5122701;27;20138;-59
2023/10/16 13:46:13;;;;;;;3.60;1.40;;;;;;;;;;5116521;27;20055;-59
2023/10/16 13:48:45;;;;;;;4.88;1.40;;;;;;;;;;5119550;27;20048;-59
2023/10/16 13:51:13;;;;;;;3.58;1.80;;;;;;;;;;5139731;27;20051;-59
2023/10/16 13:53:42;;;;;;;5.47;1.05;;;;;;;;;;5123731;27;20048;-58
2023/10/16 13:56:09;;;;;;;4.82;1.45;;;;;;;;;;5123633;27;20914;-62
2023/10/16 13:58:36;;;;;;;3.45;1.20;;;;;;;;;;5124101;27;20047;-59
2023/10/16 14:01:02;;;;;;;3.30;1.33;;;;;;;;;;5121861;27;20492;-59
2023/10/16 14:03:29;;;;;;;3.60;1.20;;;;;;;;;;5132725;27;20138;-59
2023/10/16 14:05:55;;;;;;;5.18;1.27;;;;;;;;;;5128890;27;20418;-59
2023/10/16 14:08:30;;;;;;;2.75;0.98;;;;;;;;;;5122065;27;20570;-59
2023/10/16 14:10:57;;;;;;;10.65;1.55;;;;;;;;;;5109252;27;20083;-59
2023/10/16 14:13:27;;;;;;;6.82;1.33;;;;;;;;;;5124741;27;20521;-59
2023/10/16 14:16:07;;;;;;;5.30;1.42;;;;;;;;;;5119321;27;20538;-57
2023/10/16 14:18:34;;;;;;;6.45;1.30;;;;;;;;;;5121692;27;20054;-57
2023/10/16 14:21:08;;;;;;;5.05;1.20;;;;;;;;;;5119815;27;20051;-58
2023/10/16 14:23:35;;;;;;;3.90;1.40;;;;;;;;;;5103533;27;20139;-59
2023/10/16 14:26:02;;;;;;;2.97;0.95;;;;;;;;;;5110569;27;20047;-59
2023/10/16 14:28:35;;;;;;;5.22;1.27;;;;;;;;;;5121996;27;20048;-59
2023/10/16 14:31:02;;;;;;;2.47;0.90;;;;;;;;;;5127579;27;20058;-59
2023/10/16 14:33:30;;;;;;;1.88;1.10;;;;;;;;;;5121865;27;20060;-61
2023/10/16 14:36:02;;;;;;;3.70;1.13;;;;;;;;;;5135347;27;20062;-57
2023/10/16 14:38:29;;;;;;;4.38;1.23;;;;;;;;;;5119016;27;20270;-60
2023/10/16 14:40:55;;;;;;;4.13;1.10;;;;;;;;;;5121599;27;20569;-57
2023/10/16 14:43:22;;;;;;;5.55;1.17;;;;;;;;;;5117592;27;20101;-58
2023/10/16 14:45:49;;;;;;;4.80;1.42;;;;;;;;;;5119134;27;20592;-60
2023/10/16 14:48:15;;;;;;;5.95;1.00;;;;;;;;;;5130208;27;20047;-59
2023/10/16 14:50:44;;;;;;;4.70;1.30;;;;;;;;;;5124320;27;20453;-59
2023/10/16 14:53:11;;;;;;;3.90;1.45;;;;;;;;;;5121138;27;20760;-60
2023/10/16 14:55:39;;;;;;;2.50;0.95;;;;;;;;;;5111556;27;20126;-58
2023/10/16 14:58:06;;;;;;;8.10;1.08;;;;;;;;;;5123373;27;20142;-59
2023/10/16 15:00:56;;;;;;;4.85;1.35;;;;;;;;;;5119626;27;20060;-58
2023/10/16 15:03:23;;;;;;;6.68;1.38;;;;;;;;;;5113584;27;20051;-59
2023/10/16 15:05:49;;;;;;;5.78;1.38;;;;;;;;;;5107339;27;20051;-59
2023/10/16 15:08:18;;;;;;;4.70;1.25;;;;;;;;;;5116418;27;20044;-56
2023/10/16 15:10:46;;;;;;;5.50;1.33;;;;;;;;;;5108878;27;20184;-59
2023/10/16 15:13:16;;;;;;;4.97;0.98;;;;;;;;;;5120017;27;20081;-59
2023/10/16 15:15:43;;;;;;;4.25;1.15;;;;;;;;;;5121540;27;20160;-59
2023/10/16 15:18:11;;;;;;;8.18;1.33;;;;;;;;;;5115603;27;20047;-59
2023/10/16 15:20:39;;;;;;;4.18;1.02;;;;;;;;;;5111358;27;20521;-59
2023/10/16 15:23:09;;;;;;;4.18;1.33;;;;;;;;;;5122197;27;20067;-59
2023/10/16 15:25:36;;;;;;;7.15;1.38;;;;;;;;;;5118827;27;20052;-58
2023/10/16 15:28:02;;;;;;;3.72;1.20;;;;;;;;;;5113840;27;20048;-58
2023/10/16 15:30:29;;;;;;;2.42;1.20;;;;;;;;;;5121623;27;20076;-59
2023/10/16 15:32:59;;;;;;;8.45;2.22;;;;;;;;;;5120602;27;20222;-58
2023/10/16 15:35:26;;;;;;;3.60;1.20;;;;;;;;;;5121368;27;20048;-57
2023/10/16 15:37:52;;;;;;;3.13;1.30;;;;;;;;;;5121489;27;20070;-59
2023/10/16 15:40:20;;;;;;;3.72;1.10;;;;;;;;;;5121613;27;20100;-57
2023/10/16 15:42:49;;;;;;;1.95;1.15;;;;;;;;;;5121635;27;20409;-59
2023/10/16 15:45:16;;;;;;;6.35;1.50;;;;;;;;;;5122056;27;20056;-59
2023/10/16 15:47:44;;;;;;;4.43;1.60;;;;;;;;;;5124118;27;20051;-60
2023/10/16 15:50:11;;;;;;;3.17;0.90;;;;;;;;;;5123044;27;20052;-59
2023/10/16 15:52:38;;;;;;;5.00;1.45;;;;;;;;;;5116334;27;20051;-59
2023/10/16 15:55:05;;;;;;;8.30;1.60;;;;;;;;;;5120870;27;20071;-59
2023/10/16 15:57:34;;;;;;;2.17;0.88;;;;;;;;;;5121639;27;20055;-59
2023/10/16 16:00:06;;;;;;;3.42;1.17;;;;;;;;;;5122437;27;20628;-58
2023/10/16 16:02:34;;;;;;;3.58;1.10;;;;;;;;;;5108123;27;20064;-59
2023/10/16 16:05:00;;;;;;;3.95;1.20;;;;;;;;;;5120912;27;20166;-59
2023/10/16 16:07:28;;;;;;;3.35;1.10;;;;;;;;;;5114590;27;20133;-59
2023/10/16 16:09:59;;;;;;;3.28;0.98;;;;;;;;;;5120714;27;20052;-60
2023/10/16 16:12:26;;;;;;;3.60;1.20;;;;;;;;;;5122740;27;20055;-59
2023/10/16 16:14:52;;;;;;;4.22;0.90;;;;;;;;;;5119119;27;20705;-59
2023/10/16 16:17:23;;;;;;;4.20;1.02;;;;;;;;;;5119396;27;20083;-59
2023/10/16 16:19:49;;;;;;;4.72;1.20;;;;;;;;;;5116167;27;20052;-55
2023/10/16 16:22:16;;;;;;;4.65;1.48;;;;;;;;;;5122322;27;20097;-58
2023/10/16 16:24:44;;;;;;;2.78;1.25;;;;;;;;;;5116173;27;20062;-59
2023/10/16 16:27:11;;;;;;;5.25;1.48;;;;;;;;;;5117667;27;20052;-59
2023/10/16 16:29:37;;;;;;;7.18;1.45;;;;;;;;;;5120676;27;20056;-59